Decoded Metar for OIGG (RASHT in IRAN) (IATA:RAS) | Meteo·Mobile Aviation Weather
aviador You're here:

OIGG Decoded Metar

RASHT in IRAN
Report Time2019-01-20 10:00:00
UTC Time2019-01-20 10:34:31
Flight Rules vfr VFR
Wind290° at 04 kt
W.Decomp.*RWY 27: 3.8 kt HW 1.1 kt RCW
W.Rank290° ranks 17
Current wind is below 290° avg. (6.2)
Visibility9999 m
Phenomena:N/A
Clouds:Few 025 Hf
Scattered 180 Hf
Expected CloudBase > 2,000 ft AGL from Temp-Dew spread
CeilingNone
Temp10°C (ISA -5)
Dew Point05°C (71% RH)
AAT7.4°C
QNH1025 hPa
Density Alt-938 ft
Elevation-43 ft
Report Wrong Elevation
Raw Report
METAR OIGG 201000Z 29004KT 9999 FEW025 SCT180 10/05 Q1025=

Extra information for OIGG:More info

Metar Taf Metar & Taf Last 4 Metars F.Rules Stats Wind Profile Meteogram Temp Stats Airport Information Weather charts Add Link Nearby VenuesMetar ALERT Operation Metar Decoded Social comments